sensor_id;sensor_type;location;lat;lon;timestamp;P1;durP1;ratioP1;P2;durP2;ratioP2
69485;SDS011;56677;51.710;5.366;2024-01-27T04:53:17;4.57;;;2.63;;
69485;SDS011;56677;51.710;5.366;2024-01-27T04:55:42;6.83;;;2.57;;
69485;SDS011;56677;51.710;5.366;2024-01-27T04:58:07;4.75;;;2.25;;
69485;SDS011;56677;51.710;5.366;2024-01-27T05:00:32;9.90;;;2.75;;
69485;SDS011;56677;51.710;5.366;2024-01-27T05:02:57;6.47;;;2.50;;
69485;SDS011;56677;51.710;5.366;2024-01-27T05:05:22;4.47;;;2.83;;
69485;SDS011;56677;51.710;5.366;2024-01-27T05:07:48;7.17;;;2.70;;
69485;SDS011;56677;51.710;5.366;2024-01-27T05:10:14;7.25;;;2.95;;
69485;SDS011;56677;51.710;5.366;2024-01-27T05:12:39;6.70;;;2.80;;
69485;SDS011;56677;51.710;5.366;2024-01-27T05:15:04;5.68;;;2.03;;
69485;SDS011;56677;51.710;5.366;2024-01-27T05:17:29;7.70;;;2.40;;
69485;SDS011;56677;51.710;5.366;2024-01-27T05:19:55;5.17;;;2.50;;
69485;SDS011;56677;51.710;5.366;2024-01-27T05:22:20;5.30;;;2.35;;
69485;SDS011;56677;51.710;5.366;2024-01-27T05:24:45;6.15;;;2.30;;
69485;SDS011;56677;51.710;5.366;2024-01-27T05:27:10;6.43;;;2.20;;
69485;SDS011;56677;51.710;5.366;2024-01-27T05:29:36;6.57;;;2.60;;
69485;SDS011;56677;51.710;5.366;2024-01-27T05:32:02;6.82;;;2.20;;
69485;SDS011;56677;51.710;5.366;2024-01-27T05:34:27;4.70;;;2.10;;
69485;SDS011;56677;51.710;5.366;2024-01-27T05:36:52;7.47;;;2.30;;
69485;SDS011;56677;51.710;5.366;2024-01-27T05:39:17;5.20;;;2.45;;
69485;SDS011;56677;51.710;5.366;2024-01-27T05:41:42;9.20;;;2.50;;
69485;SDS011;56677;51.710;5.366;2024-01-27T05:44:07;7.43;;;2.67;;
69485;SDS011;56677;51.710;5.366;2024-01-27T05:46:32;5.05;;;2.75;;
69485;SDS011;56677;51.710;5.366;2024-01-27T05:48:57;5.93;;;2.40;;
69485;SDS011;56677;51.710;5.366;2024-01-27T05:51:22;4.53;;;2.05;;
69485;SDS011;56677;51.710;5.366;2024-01-27T05:53:48;4.07;;;2.23;;
69485;SDS011;56677;51.710;5.366;2024-01-27T05:56:13;4.82;;;2.33;;
69485;SDS011;56677;51.710;5.366;2024-01-27T05:58:38;6.03;;;2.97;;
69485;SDS011;56677;51.710;5.366;2024-01-27T06:01:03;4.95;;;2.13;;
69485;SDS011;56677;51.710;5.366;2024-01-27T06:03:28;6.35;;;2.75;;
69485;SDS011;56677;51.710;5.366;2024-01-27T06:05:53;7.32;;;2.50;;
69485;SDS011;56677;51.710;5.366;2024-01-27T06:08:18;7.10;;;2.60;;
69485;SDS011;56677;51.710;5.366;2024-01-27T06:10:43;9.95;;;3.15;;
69485;SDS011;56677;51.710;5.366;2024-01-27T06:13:09;5.97;;;2.63;;
69485;SDS011;56677;51.710;5.366;2024-01-27T06:15:34;7.22;;;2.92;;
69485;SDS011;56677;51.710;5.366;2024-01-27T06:17:59;6.65;;;2.55;;
69485;SDS011;56677;51.710;5.366;2024-01-27T06:20:24;7.40;;;3.20;;
69485;SDS011;56677;51.710;5.366;2024-01-27T06:22:49;7.53;;;3.07;;
69485;SDS011;56677;51.710;5.366;2024-01-27T06:25:14;5.10;;;2.63;;
69485;SDS011;56677;51.710;5.366;2024-01-27T06:27:39;8.75;;;2.85;;
69485;SDS011;56677;51.710;5.366;2024-01-27T06:30:05;5.78;;;2.88;;
69485;SDS011;56677;51.710;5.366;2024-01-27T06:32:30;8.02;;;2.90;;
69485;SDS011;56677;51.710;5.366;2024-01-27T06:34:55;5.75;;;2.58;;
69485;SDS011;56677;51.710;5.366;2024-01-27T06:37:20;8.73;;;2.47;;
69485;SDS011;56677;51.710;5.366;2024-01-27T06:39:45;7.68;;;2.55;;
69485;SDS011;56677;51.710;5.366;2024-01-27T06:42:10;8.23;;;2.40;;
69485;SDS011;56677;51.710;5.366;2024-01-27T06:44:36;6.38;;;2.47;;
69485;SDS011;56677;51.710;5.366;2024-01-27T06:47:01;6.00;;;2.75;;
69485;SDS011;56677;51.710;5.366;2024-01-27T06:49:26;7.70;;;2.33;;
69485;SDS011;56677;51.710;5.366;2024-01-27T06:51:51;6.65;;;2.95;;
69485;SDS011;56677;51.710;5.366;2024-01-27T06:54:16;6.30;;;2.55;;
69485;SDS011;56677;51.710;5.366;2024-01-27T06:56:41;5.15;;;2.80;;
69485;SDS011;56677;51.710;5.366;2024-01-27T06:59:06;4.47;;;2.38;;
69485;SDS011;56677;51.710;5.366;2024-01-27T07:01:31;5.90;;;2.90;;
69485;SDS011;56677;51.710;5.366;2024-01-27T07:03:56;5.20;;;2.50;;
69485;SDS011;56677;51.710;5.366;2024-01-27T07:06:22;6.00;;;2.70;;
69485;SDS011;56677;51.710;5.366;2024-01-27T07:08:47;6.22;;;2.88;;
69485;SDS011;56677;51.710;5.366;2024-01-27T07:11:12;8.23;;;2.33;;
69485;SDS011;56677;51.710;5.366;2024-01-27T07:13:37;7.15;;;2.65;;
69485;SDS011;56677;51.710;5.366;2024-01-27T07:16:02;5.70;;;3.07;;
69485;SDS011;56677;51.710;5.366;2024-01-27T07:18:28;9.37;;;2.50;;
69485;SDS011;56677;51.710;5.366;2024-01-27T07:20:53;9.45;;;2.17;;
69485;SDS011;56677;51.710;5.366;2024-01-27T07:23:18;7.07;;;2.88;;
69485;SDS011;56677;51.710;5.366;2024-01-27T07:25:43;6.03;;;2.67;;
69485;SDS011;56677;51.710;5.366;2024-01-27T07:28:08;5.80;;;2.60;;
69485;SDS011;56677;51.710;5.366;2024-01-27T07:30:35;8.18;;;2.90;;
69485;SDS011;56677;51.710;5.366;2024-01-27T07:33:00;5.65;;;2.92;;
69485;SDS011;56677;51.710;5.366;2024-01-27T07:35:25;5.00;;;2.78;;
69485;SDS011;56677;51.710;5.366;2024-01-27T07:37:50;6.05;;;2.45;;
69485;SDS011;56677;51.710;5.366;2024-01-27T07:40:16;6.40;;;2.45;;
69485;SDS011;56677;51.710;5.366;2024-01-27T07:42:41;5.95;;;2.55;;
69485;SDS011;56677;51.710;5.366;2024-01-27T07:45:06;5.03;;;2.33;;
69485;SDS011;56677;51.710;5.366;2024-01-27T07:47:31;7.70;;;2.70;;
69485;SDS011;56677;51.710;5.366;2024-01-27T07:49:56;6.83;;;2.30;;
69485;SDS011;56677;51.710;5.366;2024-01-27T07:52:21;5.40;;;2.60;;
69485;SDS011;56677;51.710;5.366;2024-01-27T07:54:46;6.40;;;2.60;;
69485;SDS011;56677;51.710;5.366;2024-01-27T07:57:11;5.75;;;2.47;;
69485;SDS011;56677;51.710;5.366;2024-01-27T07:59:37;7.28;;;2.78;;
69485;SDS011;56677;51.710;5.366;2024-01-27T08:02:02;5.40;;;2.63;;
69485;SDS011;56677;51.710;5.366;2024-01-27T08:04:27;7.80;;;2.40;;
69485;SDS011;56677;51.710;5.366;2024-01-27T08:06:52;7.18;;;3.10;;
69485;SDS011;56677;51.710;5.366;2024-01-27T08:09:18;9.53;;;3.13;;
69485;SDS011;56677;51.710;5.366;2024-01-27T08:11:43;8.43;;;2.97;;
69485;SDS011;56677;51.710;5.366;2024-01-27T08:14:08;8.00;;;2.90;;
69485;SDS011;56677;51.710;5.366;2024-01-27T08:16:34;8.05;;;3.78;;
69485;SDS011;56677;51.710;5.366;2024-01-27T08:18:59;7.18;;;3.13;;
69485;SDS011;56677;51.710;5.366;2024-01-27T08:21:24;7.20;;;2.77;;
69485;SDS011;56677;51.710;5.366;2024-01-27T08:23:49;7.13;;;2.92;;
69485;SDS011;56677;51.710;5.366;2024-01-27T08:26:14;7.07;;;2.70;;
69485;SDS011;56677;51.710;5.366;2024-01-27T08:28:39;6.93;;;2.70;;
69485;SDS011;56677;51.710;5.366;2024-01-27T08:31:04;6.30;;;2.58;;
69485;SDS011;56677;51.710;5.366;2024-01-27T08:33:29;7.95;;;2.95;;
69485;SDS011;56677;51.710;5.366;2024-01-27T08:35:55;6.10;;;2.77;;
69485;SDS011;56677;51.710;5.366;2024-01-27T08:38:20;9.30;;;2.97;;
69485;SDS011;56677;51.710;5.366;2024-01-27T08:40:45;5.63;;;2.33;;
69485;SDS011;56677;51.710;5.366;2024-01-27T08:43:10;5.22;;;2.58;;
69485;SDS011;56677;51.710;5.366;2024-01-27T08:45:36;5.37;;;2.40;;
69485;SDS011;56677;51.710;5.366;2024-01-27T08:48:02;5.93;;;2.60;;
69485;SDS011;56677;51.710;5.366;2024-01-27T08:50:27;5.77;;;2.57;;
69485;SDS011;56677;51.710;5.366;2024-01-27T08:52:52;7.00;;;2.53;;
69485;SDS011;56677;51.710;5.366;2024-01-27T08:55:17;10.47;;;2.57;;
69485;SDS011;56677;51.710;5.366;2024-01-27T08:57:42;8.85;;;2.60;;
69485;SDS011;56677;51.710;5.366;2024-01-27T09:00:08;10.03;;;3.37;;
69485;SDS011;56677;51.710;5.366;2024-01-27T09:02:33;7.20;;;2.90;;
69485;SDS011;56677;51.710;5.366;2024-01-27T09:04:58;7.80;;;3.10;;
69485;SDS011;56677;51.710;5.366;2024-01-27T09:07:23;9.15;;;2.97;;
69485;SDS011;56677;51.710;5.366;2024-01-27T09:09:48;4.87;;;2.53;;
69485;SDS011;56677;51.710;5.366;2024-01-27T09:12:13;6.65;;;2.58;;
69485;SDS011;56677;51.710;5.366;2024-01-27T09:14:38;6.60;;;2.60;;
69485;SDS011;56677;51.710;5.366;2024-01-27T09:17:04;5.60;;;2.20;;
69485;SDS011;56677;51.710;5.366;2024-01-27T09:19:29;9.40;;;2.60;;
69485;SDS011;56677;51.710;5.366;2024-01-27T09:21:54;7.07;;;2.50;;
69485;SDS011;56677;51.710;5.366;2024-01-27T09:24:19;6.30;;;2.83;;
69485;SDS011;56677;51.710;5.366;2024-01-27T09:26:44;9.40;;;2.80;;
69485;SDS011;56677;51.710;5.366;2024-01-27T09:29:09;7.13;;;2.65;;
69485;SDS011;56677;51.710;5.366;2024-01-27T09:31:35;7.85;;;2.65;;
69485;SDS011;56677;51.710;5.366;2024-01-27T09:34:00;8.65;;;2.53;;
69485;SDS011;56677;51.710;5.366;2024-01-27T09:36:25;6.82;;;2.30;;
69485;SDS011;56677;51.710;5.366;2024-01-27T09:38:50;9.35;;;2.53;;
69485;SDS011;56677;51.710;5.366;2024-01-27T09:41:15;7.40;;;2.87;;
69485;SDS011;56677;51.710;5.366;2024-01-27T09:43:44;9.38;;;2.60;;
69485;SDS011;56677;51.710;5.366;2024-01-27T09:46:16;7.80;;;2.70;;
69485;SDS011;56677;51.710;5.366;2024-01-27T09:48:42;5.90;;;2.60;;
69485;SDS011;56677;51.710;5.366;2024-01-27T09:51:07;11.00;;;2.70;;
69485;SDS011;56677;51.710;5.366;2024-01-27T09:53:33;8.82;;;2.72;;
69485;SDS011;56677;51.710;5.366;2024-01-27T09:55:58;7.13;;;2.70;;
69485;SDS011;56677;51.710;5.366;2024-01-27T09:58:23;11.33;;;2.70;;
69485;SDS011;56677;51.710;5.366;2024-01-27T10:00:49;9.38;;;2.45;;
69485;SDS011;56677;51.710;5.366;2024-01-27T10:03:14;9.63;;;2.70;;
69485;SDS011;56677;51.710;5.366;2024-01-27T10:05:41;7.63;;;3.07;;
69485;SDS011;56677;51.710;5.366;2024-01-27T10:08:06;8.60;;;2.55;;
69485;SDS011;56677;51.710;5.366;2024-01-27T10:10:31;8.93;;;2.73;;
69485;SDS011;56677;51.710;5.366;2024-01-27T10:12:56;12.48;;;2.97;;
69485;SDS011;56677;51.710;5.366;2024-01-27T10:15:23;6.43;;;2.95;;
69485;SDS011;56677;51.710;5.366;2024-01-27T10:17:48;6.10;;;2.60;;
69485;SDS011;56677;51.710;5.366;2024-01-27T10:20:13;10.63;;;3.00;;
69485;SDS011;56677;51.710;5.366;2024-01-27T10:22:39;6.63;;;2.60;;
69485;SDS011;56677;51.710;5.366;2024-01-27T10:25:04;9.30;;;3.30;;
69485;SDS011;56677;51.710;5.366;2024-01-27T10:27:29;18.85;;;3.45;;
69485;SDS011;56677;51.710;5.366;2024-01-27T10:29:55;8.00;;;3.80;;
69485;SDS011;56677;51.710;5.366;2024-01-27T10:32:20;12.52;;;3.70;;
69485;SDS011;56677;51.710;5.366;2024-01-27T10:34:45;6.70;;;3.75;;
69485;SDS011;56677;51.710;5.366;2024-01-27T10:37:12;9.60;;;3.50;;
69485;SDS011;56677;51.710;5.366;2024-01-27T10:39:37;8.38;;;2.88;;
69485;SDS011;56677;51.710;5.366;2024-01-27T10:42:02;8.55;;;3.10;;
69485;SDS011;56677;51.710;5.366;2024-01-27T10:44:27;10.13;;;2.70;;
69485;SDS011;56677;51.710;5.366;2024-01-27T10:46:52;9.88;;;3.35;;
69485;SDS011;56677;51.710;5.366;2024-01-27T10:49:20;8.48;;;2.88;;
69485;SDS011;56677;51.710;5.366;2024-01-27T10:51:53;9.02;;;2.50;;
69485;SDS011;56677;51.710;5.366;2024-01-27T10:54:22;8.63;;;3.03;;
69485;SDS011;56677;51.710;5.366;2024-01-27T10:56:48;8.48;;;2.72;;
69485;SDS011;56677;51.710;5.366;2024-01-27T10:59:13;10.23;;;2.93;;
69485;SDS011;56677;51.710;5.366;2024-01-27T11:01:39;5.40;;;2.63;;
69485;SDS011;56677;51.710;5.366;2024-01-27T11:04:04;6.87;;;2.77;;
69485;SDS011;56677;51.710;5.366;2024-01-27T11:06:30;7.53;;;2.83;;
69485;SDS011;56677;51.710;5.366;2024-01-27T11:08:56;10.17;;;2.50;;
69485;SDS011;56677;51.710;5.366;2024-01-27T11:11:21;7.18;;;2.42;;
69485;SDS011;56677;51.710;5.366;2024-01-27T11:13:47;4.80;;;2.30;;
69485;SDS011;56677;51.710;5.366;2024-01-27T11:16:16;7.60;;;2.63;;
69485;SDS011;56677;51.710;5.366;2024-01-27T11:18:42;6.93;;;3.20;;
69485;SDS011;56677;51.710;5.366;2024-01-27T11:21:07;9.23;;;3.00;;
69485;SDS011;56677;51.710;5.366;2024-01-27T11:23:37;9.37;;;2.77;;
69485;SDS011;56677;51.710;5.366;2024-01-27T11:26:03;9.30;;;2.33;;
69485;SDS011;56677;51.710;5.366;2024-01-27T11:28:28;6.18;;;2.70;;
69485;SDS011;56677;51.710;5.366;2024-01-27T11:30:53;10.18;;;2.90;;
69485;SDS011;56677;51.710;5.366;2024-01-27T11:33:18;8.80;;;2.13;;
69485;SDS011;56677;51.710;5.366;2024-01-27T11:35:43;8.10;;;2.83;;
69485;SDS011;56677;51.710;5.366;2024-01-27T11:38:09;10.20;;;2.73;;
69485;SDS011;56677;51.710;5.366;2024-01-27T11:40:43;10.20;;;3.10;;
69485;SDS011;56677;51.710;5.366;2024-01-27T11:43:09;6.05;;;2.75;;
69485;SDS011;56677;51.710;5.366;2024-01-27T11:45:36;8.10;;;3.07;;
69485;SDS011;56677;51.710;5.366;2024-01-27T11:48:01;10.73;;;2.40;;
69485;SDS011;56677;51.710;5.366;2024-01-27T11:50:27;4.13;;;2.40;;
69485;SDS011;56677;51.710;5.366;2024-01-27T11:52:52;8.65;;;2.53;;
69485;SDS011;56677;51.710;5.366;2024-01-27T11:55:17;7.38;;;2.72;;
69485;SDS011;56677;51.710;5.366;2024-01-27T11:57:42;5.70;;;2.30;;
69485;SDS011;56677;51.710;5.366;2024-01-27T12:00:07;6.57;;;2.60;;
69485;SDS011;56677;51.710;5.366;2024-01-27T12:02:32;7.43;;;2.60;;
69485;SDS011;56677;51.710;5.366;2024-01-27T12:04:58;5.80;;;2.33;;
69485;SDS011;56677;51.710;5.366;2024-01-27T12:07:23;7.50;;;2.50;;
69485;SDS011;56677;51.710;5.366;2024-01-27T12:09:48;6.50;;;2.60;;
69485;SDS011;56677;51.710;5.366;2024-01-27T12:12:14;7.97;;;2.83;;
69485;SDS011;56677;51.710;5.366;2024-01-27T12:14:40;5.43;;;2.30;;
69485;SDS011;56677;51.710;5.366;2024-01-27T12:17:05;4.60;;;2.38;;
69485;SDS011;56677;51.710;5.366;2024-01-27T12:19:32;6.28;;;2.53;;
69485;SDS011;56677;51.710;5.366;2024-01-27T12:21:57;6.77;;;2.57;;
69485;SDS011;56677;51.710;5.366;2024-01-27T12:24:23;6.90;;;2.70;;
69485;SDS011;56677;51.710;5.366;2024-01-27T12:26:48;7.80;;;2.43;;
69485;SDS011;56677;51.710;5.366;2024-01-27T12:29:14;5.50;;;2.00;;
69485;SDS011;56677;51.710;5.366;2024-01-27T12:31:39;6.47;;;2.45;;
69485;SDS011;56677;51.710;5.366;2024-01-27T12:34:04;4.73;;;2.30;;
69485;SDS011;56677;51.710;5.366;2024-01-27T12:36:29;9.82;;;2.75;;
69485;SDS011;56677;51.710;5.366;2024-01-27T12:38:58;5.85;;;2.63;;
69485;SDS011;56677;51.710;5.366;2024-01-27T12:41:26;5.93;;;2.50;;
69485;SDS011;56677;51.710;5.366;2024-01-27T12:43:52;5.30;;;2.55;;
69485;SDS011;56677;51.710;5.366;2024-01-27T12:46:17;5.70;;;2.30;;
69485;SDS011;56677;51.710;5.366;2024-01-27T12:48:43;5.90;;;2.60;;
69485;SDS011;56677;51.710;5.366;2024-01-27T12:51:08;4.67;;;3.10;;
69485;SDS011;56677;51.710;5.366;2024-01-27T12:53:33;5.35;;;2.03;;
69485;SDS011;56677;51.710;5.366;2024-01-27T12:55:58;7.17;;;2.33;;
69485;SDS011;56677;51.710;5.366;2024-01-27T12:58:24;5.83;;;2.80;;
69485;SDS011;56677;51.710;5.366;2024-01-27T13:00:49;5.43;;;2.40;;
69485;SDS011;56677;51.710;5.366;2024-01-27T13:03:14;6.03;;;2.45;;
69485;SDS011;56677;51.710;5.366;2024-01-27T13:05:39;4.80;;;2.10;;
69485;SDS011;56677;51.710;5.366;2024-01-27T13:08:04;5.95;;;2.13;;
69485;SDS011;56677;51.710;5.366;2024-01-27T13:10:30;5.27;;;2.23;;
69485;SDS011;56677;51.710;5.366;2024-01-27T13:12:55;7.57;;;2.75;;
69485;SDS011;56677;51.710;5.366;2024-01-27T13:15:20;5.93;;;2.30;;
69485;SDS011;56677;51.710;5.366;2024-01-27T13:17:45;4.68;;;2.50;;
69485;SDS011;56677;51.710;5.366;2024-01-27T13:20:10;6.53;;;2.05;;
69485;SDS011;56677;51.710;5.366;2024-01-27T13:22:35;5.37;;;2.53;;
69485;SDS011;56677;51.710;5.366;2024-01-27T13:25:01;5.03;;;2.58;;
69485;SDS011;56677;51.710;5.366;2024-01-27T13:27:26;7.85;;;2.67;;
69485;SDS011;56677;51.710;5.366;2024-01-27T13:29:51;10.83;;;2.47;;
69485;SDS011;56677;51.710;5.366;2024-01-27T13:32:16;8.07;;;2.40;;
69485;SDS011;56677;51.710;5.366;2024-01-27T13:34:41;8.35;;;2.22;;
69485;SDS011;56677;51.710;5.366;2024-01-27T13:37:06;8.27;;;2.40;;
69485;SDS011;56677;51.710;5.366;2024-01-27T13:39:31;7.15;;;2.35;;
69485;SDS011;56677;51.710;5.366;2024-01-27T13:41:56;7.63;;;2.25;;
69485;SDS011;56677;51.710;5.366;2024-01-27T13:44:22;6.88;;;1.90;;
69485;SDS011;56677;51.710;5.366;2024-01-27T13:46:47;5.22;;;1.92;;
69485;SDS011;56677;51.710;5.366;2024-01-27T13:49:12;4.18;;;2.08;;
69485;SDS011;56677;51.710;5.366;2024-01-27T13:51:37;6.00;;;2.38;;
69485;SDS011;56677;51.710;5.366;2024-01-27T13:54:02;6.53;;;2.20;;
69485;SDS011;56677;51.710;5.366;2024-01-27T13:56:27;7.00;;;2.43;;
69485;SDS011;56677;51.710;5.366;2024-01-27T13:58:52;5.85;;;2.42;;
69485;SDS011;56677;51.710;5.366;2024-01-27T14:01:17;7.93;;;2.55;;
69485;SDS011;56677;51.710;5.366;2024-01-27T14:03:42;5.83;;;2.23;;
69485;SDS011;56677;51.710;5.366;2024-01-27T14:06:08;5.97;;;2.20;;
69485;SDS011;56677;51.710;5.366;2024-01-27T14:08:33;6.47;;;1.80;;
69485;SDS011;56677;51.710;5.366;2024-01-27T14:10:58;5.73;;;2.20;;
69485;SDS011;56677;51.710;5.366;2024-01-27T14:13:23;9.98;;;2.50;;
69485;SDS011;56677;51.710;5.366;2024-01-27T14:15:48;5.57;;;1.75;;
69485;SDS011;56677;51.710;5.366;2024-01-27T14:18:13;8.50;;;2.60;;
69485;SDS011;56677;51.710;5.366;2024-01-27T14:20:38;4.75;;;2.20;;
69485;SDS011;56677;51.710;5.366;2024-01-27T14:23:04;7.93;;;2.97;;
69485;SDS011;56677;51.710;5.366;2024-01-27T14:25:29;6.73;;;2.27;;
69485;SDS011;56677;51.710;5.366;2024-01-27T14:27:54;6.57;;;1.90;;
69485;SDS011;56677;51.710;5.366;2024-01-27T14:30:19;5.00;;;2.33;;
69485;SDS011;56677;51.710;5.366;2024-01-27T14:32:44;3.78;;;1.83;;
69485;SDS011;56677;51.710;5.366;2024-01-27T14:35:09;5.40;;;2.28;;
69485;SDS011;56677;51.710;5.366;2024-01-27T14:37:35;5.45;;;2.03;;
69485;SDS011;56677;51.710;5.366;2024-01-27T14:40:00;7.73;;;2.10;;
69485;SDS011;56677;51.710;5.366;2024-01-27T14:42:25;7.15;;;2.60;;
69485;SDS011;56677;51.710;5.366;2024-01-27T14:44:50;5.67;;;2.30;;
69485;SDS011;56677;51.710;5.366;2024-01-27T14:47:15;4.82;;;2.30;;
69485;SDS011;56677;51.710;5.366;2024-01-27T14:49:41;6.85;;;2.30;;
69485;SDS011;56677;51.710;5.366;2024-01-27T14:52:06;4.75;;;1.88;;
69485;SDS011;56677;51.710;5.366;2024-01-27T14:54:31;6.73;;;2.00;;
69485;SDS011;56677;51.710;5.366;2024-01-27T14:56:56;6.77;;;2.07;;
69485;SDS011;56677;51.710;5.366;2024-01-27T14:59:21;6.40;;;2.20;;
69485;SDS011;56677;51.710;5.366;2024-01-27T15:01:46;6.43;;;2.25;;
69485;SDS011;56677;51.710;5.366;2024-01-27T15:04:11;5.23;;;2.17;;
69485;SDS011;56677;51.710;5.366;2024-01-27T15:06:37;7.20;;;2.30;;
69485;SDS011;56677;51.710;5.366;2024-01-27T15:09:02;3.75;;;1.60;;
69485;SDS011;56677;51.710;5.366;2024-01-27T15:11:27;5.67;;;2.10;;
69485;SDS011;56677;51.710;5.366;2024-01-27T15:13:52;5.50;;;1.85;;
69485;SDS011;56677;51.710;5.366;2024-01-27T15:16:17;6.10;;;2.22;;
69485;SDS011;56677;51.710;5.366;2024-01-27T15:18:42;7.77;;;2.50;;
69485;SDS011;56677;51.710;5.366;2024-01-27T15:21:08;7.97;;;2.63;;
69485;SDS011;56677;51.710;5.366;2024-01-27T15:23:33;8.60;;;3.10;;
69485;SDS011;56677;51.710;5.366;2024-01-27T15:25:58;6.68;;;2.28;;
69485;SDS011;56677;51.710;5.366;2024-01-27T15:28:23;6.80;;;2.30;;
69485;SDS011;56677;51.710;5.366;2024-01-27T15:30:48;8.75;;;2.70;;
69485;SDS011;56677;51.710;5.366;2024-01-27T15:33:13;6.93;;;2.45;;
69485;SDS011;56677;51.710;5.366;2024-01-27T15:35:38;8.70;;;2.10;;
69485;SDS011;56677;51.710;5.366;2024-01-27T15:38:03;4.37;;;2.40;;
69485;SDS011;56677;51.710;5.366;2024-01-27T15:40:29;9.87;;;2.10;;
69485;SDS011;56677;51.710;5.366;2024-01-27T15:42:54;8.15;;;2.20;;
69485;SDS011;56677;51.710;5.366;2024-01-27T15:45:19;7.67;;;2.33;;
69485;SDS011;56677;51.710;5.366;2024-01-27T15:47:44;11.35;;;2.72;;
69485;SDS011;56677;51.710;5.366;2024-01-27T15:50:09;10.38;;;2.60;;
69485;SDS011;56677;51.710;5.366;2024-01-27T15:52:34;8.60;;;2.85;;
69485;SDS011;56677;51.710;5.366;2024-01-27T15:54:59;13.85;;;2.63;;
69485;SDS011;56677;51.710;5.366;2024-01-27T15:57:24;14.35;;;2.70;;
69485;SDS011;56677;51.710;5.366;2024-01-27T15:59:49;7.93;;;2.38;;
69485;SDS011;56677;51.710;5.366;2024-01-27T16:02:15;7.55;;;2.10;;
69485;SDS011;56677;51.710;5.366;2024-01-27T16:04:40;10.35;;;2.38;;
69485;SDS011;56677;51.710;5.366;2024-01-27T16:07:05;14.65;;;3.22;;
69485;SDS011;56677;51.710;5.366;2024-01-27T16:09:30;7.57;;;2.17;;
69485;SDS011;56677;51.710;5.366;2024-01-27T16:11:55;8.27;;;2.13;;
69485;SDS011;56677;51.710;5.366;2024-01-27T16:14:20;7.93;;;2.42;;
69485;SDS011;56677;51.710;5.366;2024-01-27T16:16:46;7.22;;;2.20;;
69485;SDS011;56677;51.710;5.366;2024-01-27T16:19:11;9.30;;;2.20;;
69485;SDS011;56677;51.710;5.366;2024-01-27T16:21:36;5.90;;;1.97;;
69485;SDS011;56677;51.710;5.366;2024-01-27T16:24:01;5.63;;;1.80;;
69485;SDS011;56677;51.710;5.366;2024-01-27T16:26:26;6.15;;;2.13;;
69485;SDS011;56677;51.710;5.366;2024-01-27T16:28:51;7.50;;;2.13;;
69485;SDS011;56677;51.710;5.366;2024-01-27T16:31:16;12.07;;;2.30;;
69485;SDS011;56677;51.710;5.366;2024-01-27T16:33:42;5.68;;;2.30;;
69485;SDS011;56677;51.710;5.366;2024-01-27T16:36:07;8.15;;;2.35;;
69485;SDS011;56677;51.710;5.366;2024-01-27T16:38:32;5.63;;;2.37;;
69485;SDS011;56677;51.710;5.366;2024-01-27T16:40:57;10.53;;;3.33;;
69485;SDS011;56677;51.710;5.366;2024-01-27T16:43:22;12.83;;;4.73;;
69485;SDS011;56677;51.710;5.366;2024-01-27T16:45:47;15.07;;;6.10;;
69485;SDS011;56677;51.710;5.366;2024-01-27T16:48:13;17.40;;;7.40;;
69485;SDS011;56677;51.710;5.366;2024-01-27T16:50:38;19.95;;;9.05;;
69485;SDS011;56677;51.710;5.366;2024-01-27T16:53:03;18.75;;;9.02;;
69485;SDS011;56677;51.710;5.366;2024-01-27T16:55:28;29.10;;;11.47;;
69485;SDS011;56677;51.710;5.366;2024-01-27T16:57:53;22.80;;;11.90;;
69485;SDS011;56677;51.710;5.366;2024-01-27T17:00:18;37.47;;;18.70;;
69485;SDS011;56677;51.710;5.366;2024-01-27T17:02:43;41.93;;;18.63;;
69485;SDS011;56677;51.710;5.366;2024-01-27T17:05:09;44.05;;;20.20;;
69485;SDS011;56677;51.710;5.366;2024-01-27T17:07:35;42.23;;;18.93;;
69485;SDS011;56677;51.710;5.366;2024-01-27T17:10:00;35.67;;;18.20;;
69485;SDS011;56677;51.710;5.366;2024-01-27T17:12:26;38.03;;;19.13;;
69485;SDS011;56677;51.710;5.366;2024-01-27T17:14:51;38.30;;;18.70;;
69485;SDS011;56677;51.710;5.366;2024-01-27T17:17:16;39.03;;;17.02;;
69485;SDS011;56677;51.710;5.366;2024-01-27T17:19:41;36.08;;;17.13;;
69485;SDS011;56677;51.710;5.366;2024-01-27T17:22:06;34.93;;;16.63;;
69485;SDS011;56677;51.710;5.366;2024-01-27T17:24:31;33.10;;;16.10;;
69485;SDS011;56677;51.710;5.366;2024-01-27T17:26:57;34.38;;;16.20;;
69485;SDS011;56677;51.710;5.366;2024-01-27T17:29:22;35.03;;;16.57;;
69485;SDS011;56677;51.710;5.366;2024-01-27T17:31:47;36.25;;;15.45;;
69485;SDS011;56677;51.710;5.366;2024-01-27T17:34:12;37.37;;;15.60;;
69485;SDS011;56677;51.710;5.366;2024-01-27T17:36:37;28.92;;;15.38;;
69485;SDS011;56677;51.710;5.366;2024-01-27T17:39:02;29.80;;;15.27;;
69485;SDS011;56677;51.710;5.366;2024-01-27T17:41:27;33.00;;;15.33;;
69485;SDS011;56677;51.710;5.366;2024-01-27T17:43:53;30.42;;;15.18;;
69485;SDS011;56677;51.710;5.366;2024-01-27T17:46:18;31.35;;;15.48;;
69485;SDS011;56677;51.710;5.366;2024-01-27T17:48:43;28.60;;;15.02;;
69485;SDS011;56677;51.710;5.366;2024-01-27T17:51:09;27.50;;;14.07;;
69485;SDS011;56677;51.710;5.366;2024-01-27T17:53:34;27.25;;;14.05;;
69485;SDS011;56677;51.710;5.366;2024-01-27T17:55:59;29.55;;;13.65;;
69485;SDS011;56677;51.710;5.366;2024-01-27T17:58:24;28.70;;;13.50;;
69485;SDS011;56677;51.710;5.366;2024-01-27T18:00:49;26.45;;;12.77;;
69485;SDS011;56677;51.710;5.366;2024-01-27T18:03:14;24.97;;;12.60;;
69485;SDS011;56677;51.710;5.366;2024-01-27T18:05:39;22.58;;;11.82;;
69485;SDS011;56677;51.710;5.366;2024-01-27T18:08:05;26.15;;;12.68;;
69485;SDS011;56677;51.710;5.366;2024-01-27T18:10:30;27.43;;;11.40;;
69485;SDS011;56677;51.710;5.366;2024-01-27T18:12:55;23.15;;;11.93;;
69485;SDS011;56677;51.710;5.366;2024-01-27T18:15:20;26.60;;;11.95;;
69485;SDS011;56677;51.710;5.366;2024-01-27T18:17:45;21.23;;;10.77;;
69485;SDS011;56677;51.710;5.366;2024-01-27T18:20:10;21.85;;;10.65;;
69485;SDS011;56677;51.710;5.366;2024-01-27T18:22:36;19.43;;;9.70;;
69485;SDS011;56677;51.710;5.366;2024-01-27T18:25:01;23.33;;;10.80;;
69485;SDS011;56677;51.710;5.366;2024-01-27T18:27:26;20.40;;;9.50;;
69485;SDS011;56677;51.710;5.366;2024-01-27T18:29:51;20.50;;;10.50;;
69485;SDS011;56677;51.710;5.366;2024-01-27T18:32:16;23.27;;;9.95;;
69485;SDS011;56677;51.710;5.366;2024-01-27T18:34:41;21.55;;;10.32;;
69485;SDS011;56677;51.710;5.366;2024-01-27T18:37:06;20.98;;;9.50;;
69485;SDS011;56677;51.710;5.366;2024-01-27T18:39:31;20.43;;;9.57;;
69485;SDS011;56677;51.710;5.366;2024-01-27T18:41:57;19.40;;;9.63;;
69485;SDS011;56677;51.710;5.366;2024-01-27T18:44:22;18.08;;;9.52;;
69485;SDS011;56677;51.710;5.366;2024-01-27T18:46:47;20.92;;;8.55;;
69485;SDS011;56677;51.710;5.366;2024-01-27T18:49:12;17.58;;;9.25;;
69485;SDS011;56677;51.710;5.366;2024-01-27T18:51:37;16.85;;;7.95;;
69485;SDS011;56677;51.710;5.366;2024-01-27T18:54:02;19.90;;;8.95;;
69485;SDS011;56677;51.710;5.366;2024-01-27T18:56:27;21.55;;;9.13;;
69485;SDS011;56677;51.710;5.366;2024-01-27T18:58:52;15.73;;;8.23;;
69485;SDS011;56677;51.710;5.366;2024-01-27T19:01:18;16.90;;;7.78;;
69485;SDS011;56677;51.710;5.366;2024-01-27T19:03:43;16.77;;;7.90;;
69485;SDS011;56677;51.710;5.366;2024-01-27T19:06:08;15.43;;;7.57;;
69485;SDS011;56677;51.710;5.366;2024-01-27T19:08:33;16.80;;;7.60;;
69485;SDS011;56677;51.710;5.366;2024-01-27T19:10:58;19.83;;;7.77;;
69485;SDS011;56677;51.710;5.366;2024-01-27T19:13:23;21.45;;;7.40;;
69485;SDS011;56677;51.710;5.366;2024-01-27T19:15:48;19.40;;;7.78;;
69485;SDS011;56677;51.710;5.366;2024-01-27T19:18:13;15.07;;;6.80;;
69485;SDS011;56677;51.710;5.366;2024-01-27T19:20:39;17.27;;;7.43;;
69485;SDS011;56677;51.710;5.366;2024-01-27T19:23:04;20.80;;;6.60;;